Time;durP1;ratioP1;P1;durP2;ratioP2;P2;SDS_P1;SDS_P2;PMS_P1;PMS_P2;Temp;Humidity;BMP_temperature;BMP_pressure;BME280_temperature;BME280_humidity;BME280_pressure;Samples;Min_cycle;Max_cycle;Signal;HPM_P1;HPM_P2
2022/04/12 00:00:37;;;;;;;6.55;5.80;;;1.80;99.90;;;;;;5035944;28;20376;-89
2022/04/12 00:03:03;;;;;;;6.53;5.38;;;1.70;99.90;;;;;;5053376;28;20076;-89
2022/04/12 00:05:29;;;;;;;6.13;5.53;;;1.70;99.90;;;;;;5035797;28;20052;-89
2022/04/12 00:07:55;;;;;;;8.77;6.15;;;1.70;99.90;;;;;;5031982;28;20048;-89
2022/04/12 00:10:21;;;;;;;8.32;5.78;;;1.70;99.90;;;;;;5053310;28;20049;-88
2022/04/12 00:12:47;;;;;;;11.57;5.85;;;1.70;99.90;;;;;;5035020;28;20611;-89
2022/04/12 00:15:13;;;;;;;7.20;6.50;;;1.70;99.90;;;;;;5053449;28;20033;-89
2022/04/12 00:20:26;;;;;;;8.75;6.50;;;1.60;99.90;;;;;;5052838;28;20055;-89
2022/04/12 00:22:53;;;;;;;9.25;7.50;;;1.60;99.90;;;;;;5053871;28;20769;-89
2022/04/12 00:25:22;;;;;;;9.20;6.88;;;1.60;99.90;;;;;;5051898;28;20048;-90
2022/04/12 00:27:49;;;;;;;8.13;7.22;;;1.60;99.90;;;;;;5038295;28;20021;-90
2022/04/12 00:30:15;;;;;;;9.18;6.43;;;1.60;99.90;;;;;;5034082;28;20033;-89
2022/04/12 00:32:41;;;;;;;7.90;6.70;;;1.60;99.90;;;;;;5053058;28;20399;-89
2022/04/12 00:35:08;;;;;;;7.15;6.45;;;1.60;99.90;;;;;;5034108;28;20394;-89
2022/04/12 00:37:34;;;;;;;6.28;5.68;;;1.60;99.90;;;;;;5053015;28;20028;-89
2022/04/12 00:39:59;;;;;;;6.88;6.18;;;1.50;99.90;;;;;;5038857;28;20588;-89
2022/04/12 00:42:25;;;;;;;9.30;6.60;;;1.50;99.90;;;;;;5053808;28;20044;-89
2022/04/12 00:44:51;;;;;;;9.20;5.97;;;1.50;99.90;;;;;;5048833;28;20040;-89
2022/04/12 00:47:17;;;;;;;7.43;5.55;;;1.50;99.90;;;;;;5033741;28;20082;-88
2022/04/12 00:49:42;;;;;;;6.10;5.38;;;1.50;99.90;;;;;;5052369;28;20037;-89
2022/04/12 00:52:10;;;;;;;6.97;6.28;;;1.50;99.90;;;;;;5038036;28;20033;-87
2022/04/12 00:54:38;;;;;;;36.40;16.63;;;1.50;99.90;;;;;;5054113;28;20029;-88
2022/04/12 00:57:05;;;;;;;52.05;21.17;;;1.40;99.90;;;;;;5044998;28;20500;-89
2022/04/12 00:59:34;;;;;;;32.47;15.75;;;1.40;99.90;;;;;;5045719;28;20040;-89
2022/04/12 01:02:05;;;;;;;8.02;6.95;;;1.40;99.90;;;;;;5032712;28;20021;-89
2022/04/12 01:04:32;;;;;;;6.22;5.43;;;1.30;99.90;;;;;;5038059;28;20024;-89
2022/04/12 01:06:58;;;;;;;6.68;5.13;;;1.30;99.90;;;;;;5050957;28;20407;-89
2022/04/12 01:09:27;;;;;;;6.32;5.72;;;1.30;99.90;;;;;;5033982;28;20025;-89
2022/04/12 01:11:54;;;;;;;7.05;6.35;;;1.30;99.90;;;;;;5034347;28;20074;-89
2022/04/12 01:14:21;;;;;;;8.25;6.82;;;1.20;99.90;;;;;;5052110;28;20106;-89
2022/04/12 01:16:47;;;;;;;6.95;6.32;;;1.20;99.90;;;;;;5054799;28;20029;-90
2022/04/12 01:19:13;;;;;;;8.85;6.18;;;1.20;99.90;;;;;;5034133;28;20697;-89
2022/04/12 01:22:00;;;;;;;7.20;5.18;;;1.10;99.90;;;;;;5031916;28;20029;-89
2022/04/12 01:24:26;;;;;;;12.05;7.63;;;1.10;99.90;;;;;;5034117;28;20106;-89
2022/04/12 01:26:52;;;;;;;6.80;6.07;;;1.10;99.90;;;;;;5034089;28;20033;-89
2022/04/12 01:29:18;;;;;;;10.35;9.32;;;1.00;99.90;;;;;;5053974;28;20393;-89
2022/04/12 01:31:43;;;;;;;8.43;7.13;;;1.00;99.90;;;;;;5052918;28;20044;-89
2022/04/12 01:34:09;;;;;;;6.93;6.15;;;1.00;99.90;;;;;;5050060;28;20025;-89
2022/04/12 01:36:34;;;;;;;8.20;5.47;;;1.00;99.90;;;;;;5054681;28;20533;-90
2022/04/12 01:39:02;;;;;;;6.93;6.22;;;1.00;99.90;;;;;;5054058;28;20029;-89
2022/04/12 01:41:27;;;;;;;9.73;5.82;;;0.90;99.90;;;;;;5036291;28;20493;-88
2022/04/12 01:43:53;;;;;;;7.15;5.68;;;0.90;99.90;;;;;;5036003;28;20025;-88
2022/04/12 01:46:19;;;;;;;8.35;6.13;;;0.80;99.90;;;;;;5034085;28;20029;-89
2022/04/12 01:48:45;;;;;;;7.57;6.00;;;0.80;99.90;;;;;;5030632;28;20026;-89
2022/04/12 01:51:11;;;;;;;8.27;6.22;;;0.70;99.90;;;;;;5033372;28;20051;-89
2022/04/12 01:53:37;;;;;;;10.88;6.35;;;0.70;99.90;;;;;;5051380;28;20120;-89
2022/04/12 01:56:03;;;;;;;9.13;5.60;;;0.60;99.90;;;;;;5030421;28;20075;-88
2022/04/12 01:58:31;;;;;;;6.25;5.68;;;0.60;99.90;;;;;;5050180;28;20029;-88
2022/04/12 02:00:57;;;;;;;6.70;6.05;;;0.50;99.90;;;;;;5032466;28;20099;-87
2022/04/12 02:03:22;;;;;;;8.05;6.43;;;0.50;99.90;;;;;;5033245;28;20037;-89
2022/04/12 02:05:48;;;;;;;8.05;6.35;;;0.60;99.90;;;;;;5033522;28;20492;-89
2022/04/12 02:08:13;;;;;;;7.63;6.72;;;0.60;99.90;;;;;;5049246;28;20029;-88
2022/04/12 02:10:39;;;;;;;7.68;6.85;;;0.60;99.90;;;;;;5051340;28;20707;-88
2022/04/12 02:13:05;;;;;;;7.00;6.30;;;0.50;99.90;;;;;;5051484;28;20370;-88
2022/04/12 02:15:31;;;;;;;9.85;6.30;;;0.50;99.90;;;;;;5033730;28;20075;-88
2022/04/12 02:17:57;;;;;;;7.22;6.35;;;0.50;99.90;;;;;;5033357;28;20044;-88
2022/04/12 02:20:22;;;;;;;7.72;6.95;;;0.50;99.90;;;;;;5022961;28;20029;-89
2022/04/12 02:22:48;;;;;;;7.57;5.75;;;0.50;99.90;;;;;;5027374;28;20030;-89
2022/04/12 02:25:14;;;;;;;9.20;5.90;;;0.50;99.90;;;;;;5047627;28;20049;-89
2022/04/12 02:27:39;;;;;;;8.20;5.93;;;0.50;99.90;;;;;;5033848;28;20032;-89
2022/04/12 02:30:06;;;;;;;7.40;6.30;;;0.50;99.90;;;;;;5032577;28;20080;-88
2022/04/12 02:32:32;;;;;;;8.93;6.63;;;0.40;99.90;;;;;;5048946;28;20128;-88
2022/04/12 02:35:00;;;;;;;6.72;6.03;;;0.40;99.90;;;;;;5033291;28;20112;-89
2022/04/12 02:37:29;;;;;;;6.82;6.22;;;0.40;99.90;;;;;;5033376;28;20083;-89
2022/04/12 02:39:54;;;;;;;9.15;6.53;;;0.40;99.90;;;;;;5033713;28;20032;-88
2022/04/12 02:42:20;;;;;;;7.82;5.78;;;0.40;99.90;;;;;;5033132;28;20087;-89
2022/04/12 02:44:46;;;;;;;8.13;6.85;;;0.40;99.90;;;;;;5039507;28;20115;-88
2022/04/12 02:47:11;;;;;;;7.35;6.60;;;0.30;99.90;;;;;;5032666;28;20033;-89
2022/04/12 02:49:37;;;;;;;6.38;5.82;;;0.30;99.90;;;;;;5032783;28;20037;-88
2022/04/12 02:52:03;;;;;;;7.88;6.28;;;0.30;99.90;;;;;;5032692;28;20473;-88
2022/04/12 02:54:28;;;;;;;6.88;6.32;;;0.20;99.90;;;;;;5029898;28;20030;-88
2022/04/12 02:56:54;;;;;;;7.22;5.65;;;0.20;99.90;;;;;;5047206;28;20176;-88
2022/04/12 02:59:19;;;;;;;6.40;5.85;;;0.20;99.90;;;;;;5032460;28;20052;-88
2022/04/12 03:01:45;;;;;;;9.02;5.90;;;0.10;99.90;;;;;;5032581;28;20029;-88
2022/04/12 03:04:11;;;;;;;7.55;5.90;;;0.00;99.90;;;;;;5032564;28;20025;-88
2022/04/12 03:06:36;;;;;;;7.10;6.40;;;0.00;99.90;;;;;;5032971;28;20388;-88
2022/04/12 03:09:02;;;;;;;6.78;6.10;;;0.00;99.90;;;;;;5028756;28;20045;-88
2022/04/12 03:11:28;;;;;;;7.18;6.50;;;0.00;99.90;;;;;;5033043;28;20030;-89
2022/04/12 03:13:54;;;;;;;6.75;6.10;;;-0.10;99.90;;;;;;5041524;28;20041;-88
2022/04/12 03:16:19;;;;;;;6.63;5.72;;;-0.10;99.90;;;;;;5031405;28;20103;-88
2022/04/12 03:18:45;;;;;;;7.10;6.40;;;-0.10;99.90;;;;;;5036553;28;20040;-90
2022/04/12 03:21:11;;;;;;;6.55;5.75;;;-0.20;99.90;;;;;;5035722;28;20037;-89
2022/04/12 03:23:36;;;;;;;12.63;7.43;;;-0.20;99.90;;;;;;5053793;28;20868;-88
2022/04/12 03:26:03;;;;;;;7.90;7.10;;;-0.30;99.90;;;;;;5035581;28;20041;-88
2022/04/12 03:28:29;;;;;;;8.20;7.40;;;-0.30;99.90;;;;;;5032131;28;20025;-89
2022/04/12 03:30:55;;;;;;;8.32;7.32;;;-0.30;99.90;;;;;;5053276;28;20516;-88
2022/04/12 03:33:21;;;;;;;8.20;7.38;;;-0.30;99.90;;;;;;5013896;28;20447;-88
2022/04/12 03:35:47;;;;;;;10.60;7.80;;;-0.30;99.90;;;;;;5053632;28;20040;-88
2022/04/12 03:38:14;;;;;;;8.40;7.60;;;-0.30;99.90;;;;;;5035610;28;20469;-89
2022/04/12 03:40:41;;;;;;;7.43;6.72;;;-0.30;99.90;;;;;;5035530;28;20029;-88
2022/04/12 03:43:07;;;;;;;8.15;7.45;;;-0.30;99.90;;;;;;5035224;28;20407;-88
2022/04/12 03:45:33;;;;;;;8.25;7.43;;;-0.30;99.90;;;;;;5054081;28;20108;-89
2022/04/12 03:47:59;;;;;;;7.63;6.93;;;-0.40;99.90;;;;;;5049630;28;20044;-88
2022/04/12 03:50:26;;;;;;;8.85;7.68;;;-0.40;99.90;;;;;;5053202;28;20203;-88
2022/04/12 03:52:52;;;;;;;7.75;6.95;;;-0.30;99.90;;;;;;5051474;28;20025;-88
2022/04/12 03:55:30;;;;;;;7.78;6.95;;;-0.30;99.90;;;;;;5053741;28;20021;-88
2022/04/12 03:58:19;;;;;;;9.13;8.23;;;-0.30;99.90;;;;;;5053979;28;20045;-85
2022/04/12 04:00:45;;;;;;;10.75;7.90;;;-0.30;99.90;;;;;;5030401;28;20049;-88
2022/04/12 04:03:11;;;;;;;9.70;8.02;;;-0.20;99.90;;;;;;5052270;28;20501;-88
2022/04/12 04:05:36;;;;;;;8.38;7.60;;;-0.20;99.90;;;;;;5027932;28;20029;-88
2022/04/12 04:08:03;;;;;;;10.98;8.60;;;-0.20;99.90;;;;;;5048285;28;20048;-88
2022/04/12 04:10:28;;;;;;;9.07;8.18;;;-0.20;99.90;;;;;;5034292;28;20086;-88
2022/04/12 04:12:54;;;;;;;7.75;6.95;;;-0.20;99.90;;;;;;5053702;28;20025;-87
2022/04/12 04:15:20;;;;;;;8.00;7.28;;;-0.20;99.90;;;;;;5049467;28;20108;-88
2022/04/12 04:17:46;;;;;;;16.35;7.25;;;-0.30;99.90;;;;;;5032584;28;20036;-88
2022/04/12 04:20:14;;;;;;;7.28;6.68;;;-0.30;99.90;;;;;;5051667;28;20033;-88
2022/04/12 04:22:40;;;;;;;10.07;6.80;;;-0.40;99.90;;;;;;5050676;28;20393;-88
2022/04/12 04:25:13;;;;;;;14.77;9.32;;;-0.40;99.90;;;;;;5050550;28;20480;-88
2022/04/12 04:27:41;;;;;;;10.15;7.97;;;-0.40;99.90;;;;;;5051436;28;20040;-88
2022/04/12 04:30:08;;;;;;;8.70;7.80;;;-0.30;99.90;;;;;;5031328;28;20408;-87
2022/04/12 04:32:34;;;;;;;8.63;7.38;;;-0.30;99.90;;;;;;5034268;28;20729;-87
2022/04/12 04:35:00;;;;;;;9.48;8.07;;;-0.20;99.90;;;;;;5052293;28;20049;-87
2022/04/12 04:37:26;;;;;;;11.45;8.32;;;-0.10;99.90;;;;;;5051990;28;20045;-86
2022/04/12 04:39:52;;;;;;;11.43;7.82;;;0.00;99.90;;;;;;5052518;28;20059;-87
2022/04/12 04:42:20;;;;;;;8.32;7.43;;;0.00;99.90;;;;;;5052161;28;20029;-87
2022/04/12 04:44:49;;;;;;;8.57;7.00;;;0.00;99.90;;;;;;5052764;28;20029;-87
2022/04/12 04:47:15;;;;;;;15.52;8.23;;;0.00;99.90;;;;;;5032655;28;20397;-88
2022/04/12 04:49:41;;;;;;;8.57;7.45;;;0.10;99.90;;;;;;5032732;28;20176;-87
2022/04/12 04:52:07;;;;;;;9.55;6.88;;;0.10;99.90;;;;;;5050727;28;20104;-88
2022/04/12 04:54:33;;;;;;;8.68;7.13;;;0.10;99.90;;;;;;5034201;28;20033;-88
2022/04/12 04:56:59;;;;;;;9.93;7.72;;;0.10;99.90;;;;;;5029457;28;20497;-88
2022/04/12 04:59:24;;;;;;;9.30;7.75;;;0.10;99.90;;;;;;5033268;28;20029;-87
2022/04/12 05:01:50;;;;;;;7.43;6.32;;;0.20;99.90;;;;;;5032590;28;20045;-87
2022/04/12 05:04:15;;;;;;;7.07;6.38;;;0.20;99.90;;;;;;5054830;28;20024;-88
2022/04/12 05:06:41;;;;;;;8.00;6.25;;;0.40;99.90;;;;;;5049129;28;20021;-87
2022/04/12 05:09:07;;;;;;;8.13;6.22;;;0.70;99.90;;;;;;5020462;28;20070;-88
2022/04/12 05:11:32;;;;;;;11.90;6.13;;;1.10;99.90;;;;;;5051297;28;20040;-87
2022/04/12 05:13:58;;;;;;;9.88;6.30;;;1.70;99.90;;;;;;5033690;28;20032;-87
2022/04/12 05:16:23;;;;;;;9.85;6.10;;;2.20;99.90;;;;;;5051642;28;20079;-88
2022/04/12 05:18:51;;;;;;;5.93;3.90;;;2.40;99.90;;;;;;5057761;28;20017;-87
2022/04/12 05:21:18;;;;;;;6.38;3.65;;;2.70;99.90;;;;;;5051209;28;20025;-87
2022/04/12 05:23:44;;;;;;;5.43;3.90;;;3.00;99.90;;;;;;5037757;28;20040;-87
2022/04/12 05:26:09;;;;;;;4.88;4.38;;;3.40;99.90;;;;;;5035312;28;20025;-88
2022/04/12 05:28:35;;;;;;;9.32;4.63;;;3.70;99.90;;;;;;5032495;28;20044;-88
2022/04/12 05:31:01;;;;;;;5.10;4.05;;;4.20;99.90;;;;;;5051117;28;20382;-88
2022/04/12 05:33:26;;;;;;;3.95;3.28;;;4.80;99.90;;;;;;5037747;28;20029;-87
2022/04/12 05:35:52;;;;;;;4.40;3.78;;;5.50;99.90;;;;;;5051025;28;20056;-87
2022/04/12 05:38:17;;;;;;;3.47;3.10;;;6.20;99.90;;;;;;5051067;28;20056;-86
2022/04/12 05:40:44;;;;;;;4.22;3.75;;;6.90;99.90;;;;;;5051026;28;20542;-86
2022/04/12 05:43:10;;;;;;;3.55;3.05;;;7.80;99.90;;;;;;5050704;28;20404;-86
2022/04/12 05:45:36;;;;;;;4.68;3.53;;;8.50;99.90;;;;;;5053382;28;20104;-86
2022/04/12 05:48:02;;;;;;;3.42;2.53;;;9.60;99.90;;;;;;5052712;28;20030;-87
2022/04/12 05:50:28;;;;;;;3.20;2.90;;;10.90;99.90;;;;;;5051896;28;20040;-86
2022/04/12 05:52:54;;;;;;;2.95;2.70;;;12.10;94.30;;;;;;5051552;28;20040;-86
2022/04/12 05:55:22;;;;;;;3.88;2.17;;;12.80;82.10;;;;;;5048041;28;20093;-87
2022/04/12 05:58:01;;;;;;;3.75;2.40;;;13.40;68.70;;;;;;5033369;28;20037;-87
2022/04/12 06:00:29;;;;;;;3.58;2.75;;;13.90;65.80;;;;;;5045262;28;20033;-87
2022/04/12 06:02:55;;;;;;;4.20;2.30;;;14.00;63.70;;;;;;5020620;28;20037;-87
2022/04/12 06:05:22;;;;;;;4.55;2.40;;;14.30;63.40;;;;;;5032941;28;20030;-88
2022/04/12 06:07:49;;;;;;;3.95;3.08;;;14.70;63.50;;;;;;5049808;28;20556;-88
2022/04/12 06:10:16;;;;;;;5.50;3.50;;;15.50;61.90;;;;;;5032874;28;20028;-87
2022/04/12 06:12:42;;;;;;;6.82;5.35;;;15.90;58.70;;;;;;5028498;28;20473;-87
2022/04/12 06:15:09;;;;;;;4.60;4.18;;;16.40;58.10;;;;;;5018777;28;20032;-88
2022/04/12 06:17:37;;;;;;;8.23;5.05;;;16.60;56.00;;;;;;5042522;28;20049;-88
2022/04/12 06:20:05;;;;;;;4.18;2.55;;;16.50;57.40;;;;;;5033127;28;20021;-88
2022/04/12 06:22:32;;;;;;;2.92;2.58;;;16.10;56.00;;;;;;5048773;28;20021;-87
2022/04/12 06:24:58;;;;;;;3.47;2.83;;;15.70;56.10;;;;;;5031215;28;20099;-87
2022/04/12 06:27:33;;;;;;;3.35;2.60;;;15.40;57.30;;;;;;5049177;28;20112;-88
2022/04/12 06:30:23;;;;;;;4.35;2.97;;;15.40;57.40;;;;;;5049093;28;20048;-88
2022/04/12 06:32:50;;;;;;;3.50;2.83;;;14.80;60.00;;;;;;5050727;28;20060;-88
2022/04/12 06:35:16;;;;;;;6.60;2.83;;;14.20;58.10;;;;;;5052567;28;20090;-88
2022/04/12 06:37:44;;;;;;;4.68;2.78;;;14.50;61.10;;;;;;5033003;28;20473;-87
2022/04/12 06:40:11;;;;;;;3.72;2.47;;;15.00;61.40;;;;;;5050116;28;20024;-88
2022/04/12 06:42:37;;;;;;;4.45;2.50;;;15.50;59.60;;;;;;5051511;28;20076;-88
2022/04/12 06:45:04;;;;;;;3.00;2.70;;;15.40;60.70;;;;;;5053847;28;20041;-88
2022/04/12 06:47:32;;;;;;;3.25;2.58;;;15.90;59.40;;;;;;5053573;28;20039;-88
2022/04/12 06:49:58;;;;;;;2.83;2.38;;;16.60;57.70;;;;;;5053139;28;20033;-88
2022/04/12 06:52:24;;;;;;;2.75;2.40;;;17.50;55.50;;;;;;5033786;28;20056;-89
2022/04/12 06:54:50;;;;;;;3.10;2.47;;;17.50;54.60;;;;;;5036394;28;20049;-88
2022/04/12 06:57:16;;;;;;;3.72;2.15;;;17.70;53.20;;;;;;5054455;28;20030;-88
2022/04/12 06:59:42;;;;;;;3.15;2.35;;;17.70;53.70;;;;;;5039175;28;20025;-88
2022/04/12 07:02:08;;;;;;;3.20;2.55;;;18.70;52.30;;;;;;5054357;28;20025;-89
2022/04/12 07:04:33;;;;;;;3.17;2.42;;;20.00;50.40;;;;;;5030074;28;20041;-89
2022/04/12 07:07:00;;;;;;;4.32;2.30;;;20.70;48.80;;;;;;5053740;28;20025;-89
2022/04/12 07:09:27;;;;;;;3.10;2.55;;;21.00;47.60;;;;;;5054240;28;20068;-89
2022/04/12 07:11:54;;;;;;;2.78;2.50;;;21.10;46.50;;;;;;5050400;28;20036;-89
2022/04/12 07:14:20;;;;;;;2.78;2.35;;;21.10;47.20;;;;;;5035131;28;20117;-89
2022/04/12 07:16:46;;;;;;;3.20;2.55;;;20.90;46.80;;;;;;5035100;28;20120;-87
2022/04/12 07:19:11;;;;;;;3.63;2.28;;;20.80;47.50;;;;;;5054010;28;20096;-89
2022/04/12 07:21:37;;;;;;;2.72;2.53;;;20.90;47.40;;;;;;5046177;28;20415;-88
2022/04/12 07:24:03;;;;;;;3.70;2.83;;;20.90;46.20;;;;;;5042889;28;20029;-88
2022/04/12 07:26:30;;;;;;;3.65;2.72;;;19.40;47.30;;;;;;5051598;28;20055;-87
2022/04/12 07:28:55;;;;;;;3.03;2.15;;;19.70;50.00;;;;;;5053528;28;20033;-89
2022/04/12 07:31:21;;;;;;;2.35;2.15;;;19.50;49.40;;;;;;5051809;28;20037;-88
2022/04/12 07:33:47;;;;;;;3.88;2.85;;;18.30;47.20;;;;;;5036864;28;20013;-89
2022/04/12 07:36:12;;;;;;;5.97;2.70;;;18.00;49.40;;;;;;5053784;28;20036;-88
2022/04/12 07:38:38;;;;;;;3.15;2.85;;;18.00;51.20;;;;;;5054284;28;20021;-88
2022/04/12 07:41:04;;;;;;;5.40;2.97;;;17.50;51.10;;;;;;5036093;28;20477;-88
2022/04/12 07:43:30;;;;;;;3.15;2.25;;;17.10;52.80;;;;;;5052606;28;20098;-88
2022/04/12 07:45:56;;;;;;;4.57;2.75;;;16.60;53.40;;;;;;5038274;28;20021;-87
2022/04/12 07:48:22;;;;;;;3.53;2.22;;;16.50;52.60;;;;;;5055565;28;20021;-88
2022/04/12 07:50:48;;;;;;;3.42;2.40;;;16.40;53.50;;;;;;5054081;28;20029;-88
2022/04/12 07:53:13;;;;;;;4.18;2.58;;;16.80;52.30;;;;;;5049902;28;20032;-88
2022/04/12 07:55:39;;;;;;;3.50;2.67;;;16.20;52.40;;;;;;5035435;28;20516;-87
2022/04/12 07:58:04;;;;;;;3.55;2.60;;;16.10;53.00;;;;;;5053778;28;20035;-88
2022/04/12 08:00:30;;;;;;;2.53;2.33;;;16.30;53.40;;;;;;5050400;28;20024;-87
2022/04/12 08:02:56;;;;;;;3.17;2.63;;;16.10;52.30;;;;;;5053414;28;20029;-88
2022/04/12 08:05:21;;;;;;;3.53;2.50;;;16.10;54.20;;;;;;5053039;28;20022;-87
2022/04/12 08:07:47;;;;;;;3.08;2.33;;;16.60;53.80;;;;;;5034796;28;20018;-87
2022/04/12 08:10:20;;;;;;;2.88;2.05;;;16.80;53.30;;;;;;5051753;28;20064;-88
2022/04/12 08:12:46;;;;;;;3.70;2.65;;;17.50;51.20;;;;;;5037499;28;20013;-88
2022/04/12 08:15:14;;;;;;;3.80;2.38;;;18.30;49.70;;;;;;5043677;28;20079;-87
2022/04/12 08:17:40;;;;;;;2.45;2.20;;;19.40;49.20;;;;;;5036092;28;20581;-88
2022/04/12 08:20:06;;;;;;;3.10;2.47;;;20.20;48.10;;;;;;5034848;28;20116;-87
2022/04/12 08:22:33;;;;;;;2.65;2.40;;;21.50;45.00;;;;;;5051251;28;20041;-87
2022/04/12 08:24:59;;;;;;;2.50;1.90;;;22.50;43.40;;;;;;5033154;28;20111;-88
2022/04/12 08:27:25;;;;;;;3.22;2.47;;;22.30;42.40;;;;;;5054930;28;20388;-86
2022/04/12 08:29:51;;;;;;;2.47;2.28;;;22.30;41.80;;;;;;5050129;28;20032;-87
2022/04/12 08:32:17;;;;;;;3.60;2.13;;;22.40;42.50;;;;;;5033198;28;20033;-88
2022/04/12 08:34:44;;;;;;;2.70;2.40;;;22.20;40.80;;;;;;5053422;28;20029;-88
2022/04/12 08:37:10;;;;;;;2.03;1.80;;;21.30;41.70;;;;;;5052702;28;20036;-87
2022/04/12 08:39:35;;;;;;;2.25;2.03;;;20.10;43.20;;;;;;5050073;28;20035;-87
2022/04/12 08:42:03;;;;;;;4.55;2.00;;;19.90;45.00;;;;;;5052439;28;20029;-87
2022/04/12 08:44:30;;;;;;;2.67;2.30;;;20.30;45.00;;;;;;5034324;28;20047;-87
2022/04/12 08:46:56;;;;;;;2.95;2.15;;;20.40;44.50;;;;;;5049726;28;20026;-85
2022/04/12 08:49:27;;;;;;;4.47;2.17;;;21.10;45.90;;;;;;5057596;28;20120;-86
2022/04/12 08:51:53;;;;;;;2.13;1.80;;;21.60;45.50;;;;;;5049051;28;20090;-86
2022/04/12 08:54:19;;;;;;;3.05;1.80;;;21.90;42.90;;;;;;5041319;28;20029;-88
2022/04/12 08:56:48;;;;;;;2.15;1.73;;;22.30;42.80;;;;;;5034204;28;20025;-86
2022/04/12 08:59:14;;;;;;;2.40;1.83;;;22.50;42.30;;;;;;5051404;28;20033;-86
2022/04/12 09:01:41;;;;;;;2.38;1.60;;;22.50;40.60;;;;;;5051205;28;20029;-86
2022/04/12 09:04:07;;;;;;;2.67;2.00;;;22.10;41.50;;;;;;5049554;28;20059;-86
2022/04/12 09:06:33;;;;;;;3.25;2.10;;;22.20;42.50;;;;;;5032752;28;20037;-86
2022/04/12 09:09:20;;;;;;;2.70;1.77;;;21.80;41.00;;;;;;5033632;28;20056;-86
2022/04/12 09:12:03;;;;;;;3.17;2.00;;;21.30;42.50;;;;;;5045815;28;20029;-85
2022/04/12 09:14:43;;;;;;;3.03;2.00;;;20.90;44.00;;;;;;5030849;28;20075;-86
2022/04/12 09:17:30;;;;;;;2.53;1.77;;;21.00;43.50;;;;;;5021371;28;20025;-86
2022/04/12 09:19:56;;;;;;;2.83;1.80;;;20.80;43.80;;;;;;5054525;28;20439;-86
2022/04/12 09:22:25;;;;;;;3.13;2.03;;;20.40;43.60;;;;;;5030356;28;20040;-86
2022/04/12 09:24:50;;;;;;;2.25;1.70;;;20.00;43.60;;;;;;5033968;28;20566;-84
2022/04/12 09:27:21;;;;;;;2.15;1.80;;;19.70;44.70;;;;;;5027179;28;20033;-86
2022/04/12 09:30:01;;;;;;;2.60;1.98;;;19.70;45.30;;;;;;5032309;28;20036;-86
2022/04/12 09:32:29;;;;;;;1.75;1.63;;;19.30;46.40;;;;;;5046089;28;20115;-86
2022/04/12 09:34:56;;;;;;;4.57;1.90;;;19.50;49.70;;;;;;5033125;28;20044;-85
2022/04/12 09:37:27;;;;;;;3.28;1.88;;;19.60;46.30;;;;;;5037898;28;20063;-85
2022/04/12 09:39:58;;;;;;;2.88;1.67;;;20.00;46.20;;;;;;5049231;28;20055;-85
2022/04/12 09:42:37;;;;;;;2.42;1.70;;;20.20;47.70;;;;;;5033149;28;20029;-86
2022/04/12 09:45:05;;;;;;;5.10;2.13;;;20.60;47.30;;;;;;5048778;28;20061;-88
2022/04/12 09:47:32;;;;;;;3.13;2.22;;;20.80;45.00;;;;;;5046133;28;20040;-86
2022/04/12 09:49:59;;;;;;;1.83;1.73;;;20.30;45.40;;;;;;5032887;28;20411;-84
2022/04/12 09:52:24;;;;;;;2.55;1.77;;;20.30;46.80;;;;;;5052907;28;20031;-86
2022/04/12 09:54:51;;;;;;;2.65;1.80;;;20.70;45.70;;;;;;5033405;28;20021;-86
2022/04/12 09:57:17;;;;;;;2.70;1.92;;;21.20;44.70;;;;;;5035233;28;20060;-85
2022/04/12 09:59:44;;;;;;;2.30;2.00;;;21.20;45.30;;;;;;5048980;28;20436;-85
2022/04/12 10:02:11;;;;;;;2.83;1.70;;;21.00;45.00;;;;;;5050100;28;20030;-85
2022/04/12 10:04:38;;;;;;;2.70;2.00;;;20.70;44.90;;;;;;5033409;28;20025;-86
2022/04/12 10:07:05;;;;;;;2.25;1.70;;;20.40;45.20;;;;;;5025072;28;20440;-86
2022/04/12 10:09:37;;;;;;;2.20;1.33;;;20.40;47.10;;;;;;5034057;28;20454;-86
2022/04/12 10:12:05;;;;;;;2.72;1.83;;;19.80;45.50;;;;;;5042735;28;20032;-85
2022/04/12 10:14:31;;;;;;;3.65;1.80;;;20.30;47.10;;;;;;5051618;28;20080;-85
2022/04/12 10:16:58;;;;;;;3.17;1.70;;;20.00;45.50;;;;;;5034282;28;20025;-85
2022/04/12 10:19:24;;;;;;;1.92;1.40;;;20.00;46.90;;;;;;5033453;28;20033;-85
2022/04/12 10:21:50;;;;;;;3.08;1.75;;;19.80;45.50;;;;;;5055836;28;20025;-86
2022/04/12 10:24:18;;;;;;;4.68;1.83;;;19.80;46.80;;;;;;5054314;28;20032;-85
2022/04/12 10:26:45;;;;;;;2.25;1.63;;;20.10;46.10;;;;;;5036684;28;20385;-85
2022/04/12 10:29:10;;;;;;;2.22;1.33;;;19.90;45.30;;;;;;5036761;28;20029;-86
2022/04/12 10:31:36;;;;;;;1.88;1.40;;;19.90;47.50;;;;;;5058133;28;20028;-86
2022/04/12 10:34:02;;;;;;;3.03;1.40;;;19.70;45.30;;;;;;5054099;28;20476;-86
2022/04/12 10:36:52;;;;;;;1.23;1.10;;;19.90;46.00;;;;;;5034807;28;20013;-85
2022/04/12 10:39:19;;;;;;;1.93;1.40;;;20.20;45.30;;;;;;5052831;28;20049;-86
2022/04/12 10:41:47;;;;;;;1.63;1.30;;;20.00;43.10;;;;;;5034858;28;20259;-85
2022/04/12 10:44:20;;;;;;;2.20;1.40;;;20.20;44.50;;;;;;5053341;28;20036;-85
2022/04/12 10:46:48;;;;;;;3.15;1.40;;;20.70;46.10;;;;;;5033949;28;20028;-86
2022/04/12 10:49:20;;;;;;;2.28;1.40;;;20.90;44.00;;;;;;5034827;28;20503;-85
2022/04/12 10:51:56;;;;;;;1.30;1.20;;;20.60;45.60;;;;;;5053167;28;20028;-86
2022/04/12 10:54:33;;;;;;;1.73;1.30;;;21.00;43.70;;;;;;5047622;28;20029;-85
2022/04/12 10:57:24;;;;;;;2.38;1.20;;;20.80;41.10;;;;;;5050955;28;20488;-85
2022/04/12 10:59:52;;;;;;;1.67;1.25;;;20.30;42.70;;;;;;5050978;28;20386;-85
2022/04/12 11:02:18;;;;;;;2.33;1.58;;;19.90;43.20;;;;;;5052614;28;20497;-85
2022/04/12 11:04:44;;;;;;;1.75;1.30;;;20.20;45.10;;;;;;5034008;28;20029;-85
2022/04/12 11:07:26;;;;;;;1.30;1.10;;;20.40;44.00;;;;;;5051295;28;20074;-85
2022/04/12 11:10:12;;;;;;;2.33;1.48;;;20.40;42.50;;;;;;5053394;28;20587;-86
2022/04/12 11:12:42;;;;;;;1.42;1.05;;;20.30;45.00;;;;;;5033390;28;20034;-86
2022/04/12 11:15:21;;;;;;;1.60;1.23;;;20.50;43.90;;;;;;5052887;28;20116;-86
2022/04/12 11:17:47;;;;;;;5.05;1.52;;;20.30;42.80;;;;;;5049903;28;20023;-85
2022/04/12 11:20:22;;;;;;;1.50;1.15;;;20.50;43.90;;;;;;5035040;28;20471;-86
2022/04/12 11:22:59;;;;;;;4.30;1.13;;;20.50;43.30;;;;;;5028911;28;20032;-86
2022/04/12 11:25:26;;;;;;;3.33;1.20;;;20.60;43.60;;;;;;5035393;28;20031;-85
2022/04/12 11:27:59;;;;;;;2.05;1.17;;;20.50;42.10;;;;;;5053385;28;20036;-83
2022/04/12 11:30:28;;;;;;;2.22;1.15;;;20.20;43.30;;;;;;5051139;28;20029;-85
2022/04/12 11:32:57;;;;;;;1.67;1.30;;;20.30;45.90;;;;;;5033999;28;20033;-84
2022/04/12 11:35:23;;;;;;;1.60;1.10;;;20.20;43.50;;;;;;5048760;28;20021;-84
2022/04/12 11:37:50;;;;;;;2.13;1.20;;;20.00;45.00;;;;;;5036454;28;20036;-85
2022/04/12 11:40:15;;;;;;;2.10;1.60;;;20.00;44.50;;;;;;5051189;28;20595;-85
2022/04/12 11:42:43;;;;;;;1.30;1.00;;;20.00;42.90;;;;;;5052084;28;20025;-85
2022/04/12 11:45:10;;;;;;;2.28;0.90;;;19.90;43.30;;;;;;5033961;28;20033;-86
2022/04/12 11:47:39;;;;;;;3.58;1.05;;;20.00;45.00;;;;;;5051791;28;20029;-85
2022/04/12 11:50:15;;;;;;;2.35;1.20;;;20.00;44.70;;;;;;5050829;28;20098;-85
2022/04/12 11:52:43;;;;;;;2.55;1.30;;;20.10;43.60;;;;;;5050927;28;20025;-85
2022/04/12 11:55:08;;;;;;;1.65;0.90;;;19.90;43.90;;;;;;5033718;28;20029;-85
2022/04/12 11:57:34;;;;;;;2.13;1.15;;;19.70;43.60;;;;;;5032737;28;20392;-84
2022/04/12 12:00:01;;;;;;;1.50;1.10;;;20.00;41.90;;;;;;5034326;28;20056;-85
2022/04/12 12:02:28;;;;;;;1.88;1.00;;;20.40;42.80;;;;;;5054773;28;20036;-86
2022/04/12 12:05:00;;;;;;;1.92;1.10;;;20.70;42.70;;;;;;5050321;28;20025;-84
2022/04/12 12:07:27;;;;;;;1.30;1.10;;;20.80;41.80;;;;;;5030163;28;20040;-85
2022/04/12 12:09:57;;;;;;;1.02;0.93;;;20.80;43.00;;;;;;5051145;28;20025;-85
2022/04/12 12:12:40;;;;;;;2.00;1.00;;;21.00;42.20;;;;;;5033695;28;20041;-85
2022/04/12 12:15:28;;;;;;;1.48;1.00;;;20.70;43.00;;;;;;5034532;28;20029;-84
2022/04/12 12:18:06;;;;;;;1.95;1.00;;;20.70;41.90;;;;;;5033923;28;20084;-85
2022/04/12 12:20:37;;;;;;;1.13;0.90;;;20.50;42.00;;;;;;5051657;28;20021;-85
2022/04/12 12:23:08;;;;;;;2.65;1.00;;;20.40;41.10;;;;;;5019396;28;20056;-85
2022/04/12 12:25:46;;;;;;;2.47;1.20;;;20.40;41.20;;;;;;5051752;28;20426;-86
2022/04/12 12:28:20;;;;;;;1.40;1.00;;;20.70;44.00;;;;;;5045439;28;20056;-86
2022/04/12 12:30:57;;;;;;;2.50;1.10;;;20.90;41.90;;;;;;5032149;28;20028;-85
2022/04/12 12:33:26;;;;;;;1.15;0.80;;;20.70;41.30;;;;;;5050176;28;20040;-86
2022/04/12 12:35:51;;;;;;;1.65;0.80;;;20.50;39.50;;;;;;5051677;28;20104;-86
2022/04/12 12:38:26;;;;;;;1.20;0.90;;;20.60;41.50;;;;;;5050689;28;20041;-86
2022/04/12 12:40:57;;;;;;;1.35;1.00;;;20.40;39.90;;;;;;5049633;28;20025;-85
2022/04/12 12:43:26;;;;;;;2.10;0.90;;;20.30;40.90;;;;;;5032856;28;20021;-86
2022/04/12 12:45:52;;;;;;;3.97;0.80;;;20.10;42.10;;;;;;5050984;28;20072;-85
2022/04/12 12:48:17;;;;;;;0.65;0.65;;;20.30;41.50;;;;;;5052915;28;20489;-85
2022/04/12 12:50:44;;;;;;;1.58;0.95;;;20.30;43.90;;;;;;5051172;28;20067;-85
2022/04/12 12:53:12;;;;;;;0.85;0.80;;;20.30;44.00;;;;;;5022196;28;20068;-88
2022/04/12 12:55:51;;;;;;;3.05;1.10;;;20.40;44.70;;;;;;5033175;28;20048;-87